Portada
METAR-TAF:

METAR-TAF

Aeropuertos :

La Coruña, España

Aeropuerto de La Coruña

latitud: 43-18N, longitud: 008-23W, altitud: 97 m

Observación

El informe se hizo hace 20 horas y 23 minutos, a las 15:00 UTC
Viento 9 kt del noreste, variando entre noroeste y este
Temperatura 13°C
Humedad 67%
Presión 1024 hPa
Visibilidad 10 km o más
Cielo nuboso a una altura de 4200 ft

METAR: LECO 201500Z 04009KT 320V080 9999 BKN042 13/07 Q1024 NOSIG

Hora: 12:23 (11:23 UTC)

Pronóstico

El informe se hizo hace 21 horas y 23 minutos, a las 14:00 UTC
Pronóstico válido del 20 a las 15 UTC al 21 a las 15 UTC
Viento 8 kt del norte-noreste
Visibilidad 10 km o más
Nubes dispersas a una altura de 4000 ft
Probabilidad 30% :
Temporalmente
del 20 a las 23 UTC al 21 a las 08 UTC
Visibilidad: 3000 m
neblina

TAF: LECO 201400Z 2015/2115 03008KT 9999 SCT040 TX14/2015Z TN06/2108Z PROB30 TEMPO 2023/2108 3000 BR

Observaciones y pronósticos meteorológicos de más de 4000 aeropuertos (mensajes METAR y TAF).

Los puntos amarillos y rojos representan las estaciones disponibles.

Ponga el ratón en el punto deseado para ver el nombre de la estación.

Haga clic para ver las observaciones y los pronósticos meteorológicos.

Para cambiar el mapa : haga clic en los botones verdes con una cruz de color negro para hacer un zoom, en el botón verde con un guión para alejar o en las flechas verdes para mapas adyacentes.


METAR-TAF: